Time;durP1;ratioP1;P1;durP2;ratioP2;P2;SDS_P1;SDS_P2;PMS_P1;PMS_P2;Temp;Humidity;BMP_temperature;BMP_pressure;BME280_temperature;BME280_humidity;BME280_pressure;Samples;Min_cycle;Max_cycle;Signal;HPM_P1;HPM_P2
2023/08/15 00:01:54;;;;;;;0.10;0.10;;;;;;;18.79;100.00;101062.91;5095641;28;20024;-49
2023/08/15 00:04:19;;;;;;;0.10;0.10;;;;;;;18.69;100.00;101056.81;5096150;28;20016;-47
2023/08/15 00:06:44;;;;;;;0.03;0.03;;;;;;;18.62;100.00;101058.56;5095683;28;20387;-47
2023/08/15 00:09:10;;;;;;;0.00;0.00;;;;;;;18.59;100.00;101058.53;5095585;28;20024;-49
2023/08/15 00:11:35;;;;;;;0.00;0.00;;;;;;;18.58;100.00;101051.59;5095917;28;20360;-48
2023/08/15 00:14:00;;;;;;;0.08;0.08;;;;;;;18.54;100.00;101042.88;5095310;28;20020;-50
2023/08/15 00:16:26;;;;;;;0.00;0.00;;;;;;;18.50;100.00;101037.66;5095775;28;20020;-49
2023/08/15 00:18:51;;;;;;;0.00;0.00;;;;;;;18.42;100.00;101037.66;5095931;28;20042;-49
2023/08/15 00:21:16;;;;;;;0.00;0.00;;;;;;;18.34;100.00;101027.22;5095117;28;20055;-48
2023/08/15 00:23:42;;;;;;;0.00;0.00;;;;;;;18.30;100.00;101041.13;5095643;28;20365;-47
2023/08/15 00:26:07;;;;;;;0.00;0.00;;;;;;;18.21;100.00;101034.16;5094696;28;20137;-48
2023/08/15 00:28:32;;;;;;;0.10;0.10;;;;;;;18.09;100.00;101032.41;5094764;28;20024;-48
2023/08/15 00:30:58;;;;;;;0.10;0.10;;;;;;;18.11;100.00;101042.84;5095964;28;20036;-48
2023/08/15 00:33:23;;;;;;;0.00;0.00;;;;;;;17.98;100.00;101055.00;5095448;28;20024;-47
2023/08/15 00:35:48;;;;;;;0.10;0.10;;;;;;;17.91;100.00;101051.47;5094740;28;20024;-48
2023/08/15 00:38:14;;;;;;;0.10;0.10;;;;;;;17.85;100.00;101050.59;5095742;28;20061;-49
2023/08/15 00:40:39;;;;;;;0.10;0.10;;;;;;;17.72;100.00;101055.75;5095396;28;20024;-47
2023/08/15 00:43:05;;;;;;;0.08;0.08;;;;;;;17.66;100.00;101054.88;5094803;28;20020;-48
2023/08/15 00:45:32;;;;;;;0.00;0.00;;;;;;;17.68;100.00;101053.16;5094876;28;20063;-50
2023/08/15 00:47:57;;;;;;;0.10;0.10;;;;;;;17.64;100.00;101057.47;5095211;28;20468;-49
2023/08/15 00:50:23;;;;;;;0.00;0.00;;;;;;;17.54;100.00;101058.31;5094469;28;20062;-45
2023/08/15 00:52:49;;;;;;;0.00;0.00;;;;;;;17.59;100.00;101061.81;5095503;28;20024;-48
2023/08/15 00:55:16;;;;;;;0.00;0.00;;;;;;;17.56;100.00;101069.63;5095912;28;20024;-50
2023/08/15 00:57:42;;;;;;;0.10;0.10;;;;;;;17.60;100.00;101072.22;5094268;28;20032;-48
2023/08/15 01:00:08;;;;;;;0.00;0.00;;;;;;;17.68;100.00;101074.88;5095222;28;20028;-48
2023/08/15 01:02:34;;;;;;;0.00;0.00;;;;;;;17.55;100.00;101073.09;5094747;28;20024;-49
2023/08/15 01:04:59;;;;;;;0.10;0.10;;;;;;;17.58;100.00;101075.69;5094480;28;20032;-49
2023/08/15 01:07:25;;;;;;;0.00;0.00;;;;;;;17.51;100.00;101081.75;5094600;28;20051;-48
2023/08/15 01:09:50;;;;;;;0.00;0.00;;;;;;;17.55;100.00;101078.28;5095225;28;20460;-49
2023/08/15 01:12:28;;;;;;;0.00;0.00;;;;;;;17.43;100.00;101064.34;5094090;28;20031;-47
2023/08/15 01:15:06;;;;;;;0.03;0.03;;;;;;;17.49;100.00;101067.84;5094944;28;20119;-49
2023/08/15 01:17:36;;;;;;;0.00;0.00;;;;;;;17.43;100.00;101053.91;5093918;28;20039;-50
2023/08/15 01:20:07;;;;;;;0.08;0.08;;;;;;;17.42;100.00;101060.00;5095029;28;20109;-47
2023/08/15 01:22:36;;;;;;;0.00;0.00;;;;;;;17.36;100.00;101062.56;5094519;28;20051;-48
2023/08/15 01:25:01;;;;;;;0.00;0.00;;;;;;;17.39;100.00;101048.69;5093945;28;20020;-48
2023/08/15 01:27:27;;;;;;;0.00;0.00;;;;;;;17.32;100.00;101055.59;5094183;28;20031;-48
2023/08/15 01:29:52;;;;;;;0.00;0.00;;;;;;;17.34;100.00;101047.78;5094521;28;20027;-49
2023/08/15 01:32:30;;;;;;;0.08;0.08;;;;;;;17.32;100.00;101058.19;5093686;28;20020;-49
2023/08/15 01:35:14;;;;;;;0.10;0.10;;;;;;;17.41;100.00;101062.59;5094680;28;20035;-49
2023/08/15 01:37:47;;;;;;;0.10;0.10;;;;;;;17.32;100.00;101060.81;5094062;28;20032;-49
2023/08/15 01:40:16;;;;;;;0.10;0.10;;;;;;;17.40;100.00;101079.97;5093494;28;20028;-49
2023/08/15 01:42:42;;;;;;;0.00;0.00;;;;;;;17.40;100.00;101085.19;5093922;28;20380;-46
2023/08/15 01:45:09;;;;;;;0.10;0.10;;;;;;;17.43;100.00;101100.81;5094034;28;20491;-46
2023/08/15 01:47:35;;;;;;;0.00;0.00;;;;;;;17.46;100.00;101091.28;5093386;28;20062;-49
2023/08/15 01:50:00;;;;;;;0.10;0.10;;;;;;;17.50;100.00;101096.50;5094138;28;20476;-49
2023/08/15 01:52:26;;;;;;;0.10;0.10;;;;;;;17.48;100.00;101105.19;5093241;28;20095;-48
2023/08/15 01:54:51;;;;;;;0.10;0.10;;;;;;;17.49;100.00;101104.31;5094040;28;20431;-49
2023/08/15 01:57:16;;;;;;;0.10;0.10;;;;;;;17.51;100.00;101107.81;5093985;28;20549;-48
2023/08/15 01:59:43;;;;;;;0.00;0.00;;;;;;;17.53;100.00;101113.88;5092975;28;20028;-46
2023/08/15 02:02:09;;;;;;;0.10;0.10;;;;;;;17.53;100.00;101116.50;5073862;28;20048;-48
2023/08/15 02:04:35;;;;;;;0.10;0.10;;;;;;;17.53;100.00;101116.50;5073361;28;20021;-49
2023/08/15 02:07:00;;;;;;;0.00;0.00;;;;;;;17.51;100.00;101120.84;5072796;28;20040;-49
2023/08/15 02:09:26;;;;;;;0.10;0.10;;;;;;;17.51;100.00;101124.31;5073169;28;20153;-49
2023/08/15 02:11:52;;;;;;;0.10;0.10;;;;;;;17.50;100.00;101127.78;5073654;28;20107;-46
2023/08/15 02:14:17;;;;;;;0.10;0.10;;;;;;;17.50;100.00;101132.13;5072863;28;20035;-49
2023/08/15 02:16:43;;;;;;;0.10;0.10;;;;;;;17.48;100.00;101133.84;5073162;28;20170;-48
2023/08/15 02:19:08;;;;;;;0.10;0.10;;;;;;;17.49;100.00;101140.81;5073384;28;20025;-48
2023/08/15 02:21:33;;;;;;;0.10;0.10;;;;;;;17.43;100.00;101141.66;5072389;28;20029;-48
2023/08/15 02:23:59;;;;;;;0.00;0.00;;;;;;;17.40;100.00;101146.81;5073281;28;20498;-49
2023/08/15 02:26:24;;;;;;;0.10;0.10;;;;;;;17.36;100.00;101145.94;5073100;28;20385;-49
2023/08/15 02:28:49;;;;;;;0.00;0.00;;;;;;;17.35;100.00;101146.81;5072727;28;20434;-49
2023/08/15 02:31:15;;;;;;;0.10;0.10;;;;;;;17.33;100.00;101145.91;5073154;28;20025;-49
2023/08/15 02:33:40;;;;;;;0.10;0.10;;;;;;;17.31;100.00;101145.03;5072742;28;20110;-48
2023/08/15 02:36:06;;;;;;;0.03;0.03;;;;;;;17.24;100.00;101145.88;5072484;28;20056;-49
2023/08/15 02:38:33;;;;;;;0.10;0.10;;;;;;;17.24;100.00;101145.88;5073021;28;20431;-48
2023/08/15 02:40:58;;;;;;;0.10;0.10;;;;;;;17.26;100.00;101151.94;5073323;28;20099;-49
2023/08/15 02:43:24;;;;;;;0.10;0.10;;;;;;;17.17;100.00;101147.56;5071773;28;20045;-49
2023/08/15 02:45:49;;;;;;;0.10;0.10;;;;;;;17.14;100.00;101144.06;5073037;28;20028;-49
2023/08/15 02:48:14;;;;;;;0.10;0.10;;;;;;;17.10;100.00;101136.19;5072630;28;20027;-48
2023/08/15 02:50:40;;;;;;;0.10;0.10;;;;;;;17.08;100.00;101135.34;5071932;28;20025;-48
2023/08/15 02:53:05;;;;;;;0.10;0.10;;;;;;;17.04;100.00;101135.28;5072980;28;20013;-49
2023/08/15 02:55:32;;;;;;;0.10;0.10;;;;;;;16.98;100.00;101143.94;5072822;28;20029;-48
2023/08/15 02:57:58;;;;;;;0.10;0.10;;;;;;;16.96;100.00;101140.44;5072137;28;20017;-48
2023/08/15 03:00:23;;;;;;;0.10;0.10;;;;;;;16.92;100.00;101133.47;5072612;28;20029;-48
2023/08/15 03:02:48;;;;;;;0.10;0.10;;;;;;;16.91;100.00;101131.72;5072210;28;20048;-49
2023/08/15 03:05:14;;;;;;;0.00;0.00;;;;;;;16.86;100.00;101133.38;5072715;28;20476;-46
2023/08/15 03:07:39;;;;;;;0.08;0.08;;;;;;;16.82;100.00;101144.63;5072433;28;20034;-48
2023/08/15 03:10:05;;;;;;;0.10;0.10;;;;;;;16.77;100.00;101144.59;5071982;28;20115;-49
2023/08/15 03:12:30;;;;;;;0.10;0.10;;;;;;;16.72;100.00;101136.75;5072477;28;20024;-49
2023/08/15 03:14:57;;;;;;;0.10;0.10;;;;;;;16.73;100.00;101140.22;5072910;28;20017;-49
2023/08/15 03:17:22;;;;;;;0.10;0.10;;;;;;;16.70;100.00;101130.66;5071835;28;20029;-46
2023/08/15 03:19:48;;;;;;;0.00;0.00;;;;;;;16.66;100.00;101136.69;5072572;28;20025;-49
2023/08/15 03:22:13;;;;;;;0.10;0.10;;;;;;;16.64;100.00;101138.38;5072563;28;20024;-49
2023/08/15 03:24:38;;;;;;;0.10;0.10;;;;;;;16.57;100.00;101141.81;5071496;28;20229;-49
2023/08/15 03:27:04;;;;;;;0.10;0.10;;;;;;;16.51;100.00;101146.94;5072662;28;20028;-48
2023/08/15 03:29:29;;;;;;;0.10;0.10;;;;;;;16.53;100.00;101145.25;5072316;28;20032;-48
2023/08/15 03:31:57;;;;;;;0.10;0.10;;;;;;;16.46;100.00;101141.69;5071877;28;20036;-49
2023/08/15 03:34:23;;;;;;;0.10;0.10;;;;;;;16.41;100.00;101143.38;5072380;28;20472;-49
2023/08/15 03:36:48;;;;;;;0.10;0.10;;;;;;;16.35;100.00;101138.13;5072557;28;20082;-48
2023/08/15 03:39:13;;;;;;;0.10;0.10;;;;;;;16.38;100.00;101151.16;5071725;28;20522;-49
2023/08/15 03:41:39;;;;;;;0.10;0.10;;;;;;;16.24;100.00;101146.69;5072324;28;20028;-48
2023/08/15 03:44:04;;;;;;;0.10;0.10;;;;;;;16.25;100.00;101156.22;5072402;28;20037;-49
2023/08/15 03:46:30;;;;;;;0.10;0.10;;;;;;;16.19;100.00;101150.06;5071470;28;20028;-48
2023/08/15 03:48:55;;;;;;;0.10;0.10;;;;;;;16.18;100.00;101157.03;5072552;28;20067;-50
2023/08/15 03:51:20;;;;;;;0.10;0.10;;;;;;;16.10;100.00;101156.94;5072295;28;20480;-49
2023/08/15 03:53:46;;;;;;;0.10;0.10;;;;;;;16.09;100.00;101156.91;5071240;28;20036;-48
2023/08/15 03:56:11;;;;;;;0.10;0.10;;;;;;;16.06;100.00;101168.16;5072245;28;20109;-50
2023/08/15 03:58:37;;;;;;;0.10;0.10;;;;;;;16.06;100.00;101164.66;5072081;28;20024;-47
2023/08/15 04:01:02;;;;;;;0.10;0.10;;;;;;;16.04;100.00;101158.59;5074934;28;20020;-49
2023/08/15 04:03:27;;;;;;;0.10;0.10;;;;;;;16.00;100.00;101155.06;5075737;28;20373;-49
2023/08/15 04:05:52;;;;;;;0.10;0.10;;;;;;;15.99;100.00;101153.31;5075822;28;20089;-48
2023/08/15 04:08:18;;;;;;;0.10;0.10;;;;;;;15.98;100.00;101156.78;5075110;28;20016;-48
2023/08/15 04:10:44;;;;;;;0.10;0.10;;;;;;;15.96;100.00;101158.50;5075632;28;20017;-48
2023/08/15 04:13:10;;;;;;;0.10;0.10;;;;;;;15.93;100.00;101158.44;5075107;28;20021;-49
2023/08/15 04:15:36;;;;;;;0.10;0.10;;;;;;;15.87;100.00;101161.84;5075479;28;20384;-49
2023/08/15 04:18:06;;;;;;;0.10;0.10;;;;;;;15.88;100.00;101154.91;5075657;28;20024;-48
2023/08/15 04:20:31;;;;;;;0.10;0.10;;;;;;;15.86;100.00;101141.03;5074524;28;20029;-49
2023/08/15 04:22:56;;;;;;;0.10;0.10;;;;;;;15.84;100.00;101148.81;5075592;28;20021;-50
2023/08/15 04:25:22;;;;;;;0.10;0.10;;;;;;;15.78;100.00;101149.56;5075642;28;20098;-48
2023/08/15 04:27:47;;;;;;;0.10;0.10;;;;;;;15.75;100.00;101149.53;5074687;28;20350;-47
2023/08/15 04:30:13;;;;;;;0.10;0.10;;;;;;;15.75;100.00;101148.66;5075410;28;20104;-43
2023/08/15 04:32:38;;;;;;;0.10;0.10;;;;;;;15.74;100.00;101157.31;5075145;28;20048;-48
2023/08/15 04:35:03;;;;;;;0.10;0.10;;;;;;;15.72;100.00;101159.88;5074540;28;20020;-49
2023/08/15 04:37:29;;;;;;;0.10;0.10;;;;;;;15.69;100.00;101154.66;5075277;28;20513;-45
2023/08/15 04:39:54;;;;;;;0.10;0.10;;;;;;;15.68;100.00;101168.50;5075754;28;20537;-47
2023/08/15 04:42:20;;;;;;;0.10;0.10;;;;;;;15.68;100.00;101173.69;5074690;28;20048;-48
2023/08/15 04:44:45;;;;;;;0.10;0.10;;;;;;;15.69;100.00;101165.03;5074657;28;20028;-46
2023/08/15 04:47:11;;;;;;;0.10;0.10;;;;;;;15.67;100.00;101171.94;5075263;28;20058;-49
2023/08/15 04:49:36;;;;;;;0.10;0.10;;;;;;;15.66;100.00;101178.00;5074161;28;20024;-49
2023/08/15 04:52:01;;;;;;;0.10;0.10;;;;;;;15.63;100.00;101180.53;5075092;28;20365;-48
2023/08/15 04:54:27;;;;;;;0.10;0.10;;;;;;;15.64;100.00;101179.69;5074939;28;20063;-49
2023/08/15 04:56:53;;;;;;;0.10;0.10;;;;;;;15.61;100.00;101193.50;5074442;28;20016;-48
2023/08/15 04:59:18;;;;;;;0.10;0.10;;;;;;;15.63;100.00;101202.22;5075050;28;20074;-49
2023/08/15 05:01:44;;;;;;;0.10;0.10;;;;;;;15.63;100.00;101202.22;5074629;28;20079;-49
2023/08/15 05:04:09;;;;;;;0.10;0.10;;;;;;;15.64;100.00;101205.69;5074111;28;20033;-47
2023/08/15 05:06:35;;;;;;;0.10;0.10;;;;;;;15.64;100.00;101213.47;5074313;28;20131;-50
2023/08/15 05:09:00;;;;;;;0.10;0.10;;;;;;;15.66;100.00;101224.78;5074888;28;20112;-49
2023/08/15 05:11:25;;;;;;;0.10;0.10;;;;;;;15.72;100.00;101222.25;5073249;28;20013;-49
2023/08/15 05:13:50;;;;;;;0.10;0.10;;;;;;;15.68;100.00;101225.66;5074727;28;20377;-49
2023/08/15 05:16:16;;;;;;;0.10;0.10;;;;;;;15.72;100.00;101239.56;5073809;28;20024;-46
2023/08/15 05:18:42;;;;;;;0.10;0.10;;;;;;;15.67;100.00;101242.09;5074310;28;20051;-49
2023/08/15 05:21:07;;;;;;;0.10;0.10;;;;;;;15.71;100.00;101246.50;5074596;28;20056;-47
2023/08/15 05:23:32;;;;;;;0.10;0.10;;;;;;;15.73;100.00;101244.78;5073577;28;20081;-47
2023/08/15 05:25:58;;;;;;;0.10;0.10;;;;;;;15.77;100.00;101246.56;5056619;28;20100;-49
2023/08/15 05:28:23;;;;;;;0.10;0.10;;;;;;;15.83;100.00;101251.03;5074207;28;20077;-45
2023/08/15 05:30:48;;;;;;;0.10;0.10;;;;;;;15.86;100.00;101260.59;5073756;28;20085;-49
2023/08/15 05:33:14;;;;;;;0.10;0.10;;;;;;;15.91;100.00;101261.53;5074182;28;20154;-43
2023/08/15 05:35:45;;;;;;;0.10;0.10;;;;;;;15.96;100.00;101271.13;5073737;28;20384;-44
2023/08/15 05:38:11;;;;;;;0.10;0.10;;;;;;;16.00;100.00;101261.66;5073618;28;20032;-47
2023/08/15 05:40:37;;;;;;;0.10;0.10;;;;;;;16.08;100.00;101265.22;5073955;28;20025;-44
2023/08/15 05:43:02;;;;;;;0.10;0.10;;;;;;;16.16;100.00;101259.28;5074080;28;20028;-46
2023/08/15 05:45:29;;;;;;;0.10;0.10;;;;;;;16.23;100.00;101255.88;5072729;28;20090;-45
2023/08/15 05:47:55;;;;;;;0.10;0.10;;;;;;;16.32;100.00;101249.94;5074026;28;20040;-46
2023/08/15 05:50:20;;;;;;;0.10;0.10;;;;;;;16.38;100.00;101245.66;5073797;28;20048;-45
2023/08/15 05:52:45;;;;;;;0.10;0.10;;;;;;;16.48;100.00;101257.06;5072713;28;20108;-45
2023/08/15 05:55:11;;;;;;;0.10;0.10;;;;;;;16.53;100.00;101259.72;5073929;28;20104;-44
2023/08/15 05:57:36;;;;;;;0.10;0.10;;;;;;;16.60;100.00;101271.94;5073501;28;20033;-45
2023/08/15 06:00:02;;;;;;;0.10;0.10;;;;;;;16.66;100.00;101272.00;5072956;28;20021;-45
2023/08/15 06:02:28;;;;;;;0.10;0.10;;;;;;;16.75;100.00;101277.31;5073478;28;20103;-44
2023/08/15 06:04:53;;;;;;;0.10;0.10;;;;;;;16.81;100.00;101281.75;5073797;28;20107;-48
2023/08/15 06:07:19;;;;;;;0.10;0.10;;;;;;;16.89;100.00;101287.03;5072762;28;20028;-45
2023/08/15 06:09:44;;;;;;;0.10;0.10;;;;;;;16.95;100.00;101281.88;5073379;28;20043;-48
2023/08/15 06:12:19;;;;;;;0.10;0.10;;;;;;;17.02;100.00;101286.31;5073466;28;20077;-46
2023/08/15 06:14:44;;;;;;;0.05;0.05;;;;;;;17.05;100.00;101286.34;5072739;28;20021;-46
2023/08/15 06:17:12;;;;;;;0.00;0.00;;;;;;;17.07;100.00;101294.19;5073425;28;20078;-46
2023/08/15 06:19:37;;;;;;;;;;;;;;;17.14;100.00;101310.75;5072978;28;20020;-46
2023/08/15 06:22:02;;;;;;;0.10;0.10;;;;;;;17.18;100.00;101307.31;5073421;28;19918;-46
2023/08/15 06:24:28;;;;;;;0.10;0.10;;;;;;;17.24;100.00;101307.38;5072251;28;20081;-49
2023/08/15 06:26:53;;;;;;;0.10;0.10;;;;;;;17.32;100.00;101310.03;5072699;28;20035;-48
2023/08/15 06:29:18;;;;;;;0.10;0.10;;;;;;;17.44;100.00;101321.44;5073365;28;20115;-48
2023/08/15 06:31:44;;;;;;;0.10;0.10;;;;;;;17.52;100.00;101315.41;5073086;28;20027;-48
2023/08/15 06:34:09;;;;;;;0.25;0.10;;;;;;;17.56;100.00;101312.00;5072470;28;20037;-46
2023/08/15 06:36:34;;;;;;;0.10;0.10;;;;;;;17.65;100.00;101317.28;5073179;28;20024;-49
2023/08/15 06:39:00;;;;;;;0.10;0.10;;;;;;;17.71;100.00;101314.69;5073196;28;20036;-47
2023/08/15 06:41:25;;;;;;;0.00;0.00;;;;;;;17.79;100.00;101317.34;5072297;28;20028;-47
2023/08/15 06:43:51;;;;;;;0.03;0.03;;;;;;;17.83;100.00;101316.53;5073001;28;20128;-48
2023/08/15 06:46:16;;;;;;;0.10;0.10;;;;;;;17.93;100.00;101321.00;5092734;28;20462;-47
2023/08/15 06:48:41;;;;;;;0.10;0.10;;;;;;;18.04;100.00;101318.44;5092184;28;20043;-47
2023/08/15 06:51:07;;;;;;;0.00;0.00;;;;;;;18.09;100.00;101326.31;5093468;28;20099;-51
2023/08/15 06:53:33;;;;;;;0.00;0.00;;;;;;;18.20;100.00;101324.59;5093070;28;20048;-48
2023/08/15 06:55:58;;;;;;;0.10;0.10;;;;;;;18.24;100.00;101331.59;5092519;28;20085;-44
2023/08/15 06:58:25;;;;;;;0.10;0.10;;;;;;;18.36;100.00;101325.56;5092832;28;20024;-44
2023/08/15 07:00:51;;;;;;;0.00;0.00;;;;;;;18.46;100.00;101325.63;5093003;28;20042;-45
2023/08/15 07:03:16;;;;;;;0.10;0.10;;;;;;;18.55;100.00;101323.03;5092217;28;20432;-47
2023/08/15 07:05:42;;;;;;;0.10;0.10;;;;;;;18.70;100.00;101323.09;5092743;28;20036;-47
2023/08/15 07:08:08;;;;;;;0.10;0.10;;;;;;;18.82;100.00;101324.88;5093048;28;20052;-44
2023/08/15 07:10:35;;;;;;;0.00;0.00;;;;;;;18.92;100.00;101328.44;5091832;28;20051;-46
2023/08/15 07:13:00;;;;;;;0.10;0.00;;;;;;;19.03;100.00;101329.34;5092893;28;20042;-48
2023/08/15 07:15:26;;;;;;;0.10;0.10;;;;;;;19.04;100.00;101325.84;5092175;28;20468;-45
2023/08/15 07:17:51;;;;;;;0.10;0.10;;;;;;;19.11;100.00;101318.00;5091989;28;20024;-44
2023/08/15 07:20:17;;;;;;;0.00;0.00;;;;;;;19.14;100.00;101328.47;5092997;28;20023;-46
2023/08/15 07:22:42;;;;;;;0.10;0.10;;;;;;;19.23;100.00;101331.09;5091925;28;20380;-48
2023/08/15 07:25:08;;;;;;;0.00;0.00;;;;;;;19.31;100.00;101337.19;5092166;28;20494;-46
2023/08/15 07:27:33;;;;;;;0.03;0.03;;;;;;;19.37;100.00;101334.59;5092359;28;20107;-45
2023/08/15 07:29:59;;;;;;;0.10;0.10;;;;;;;19.51;100.00;101349.41;5092060;28;20158;-45
2023/08/15 07:32:27;;;;;;;0.10;0.10;;;;;;;19.57;100.00;101354.66;5092360;28;20049;-45
2023/08/15 07:34:53;;;;;;;0.00;0.00;;;;;;;19.65;100.00;101350.31;5094447;28;20024;-49
2023/08/15 07:37:18;;;;;;;0.10;0.10;;;;;;;19.71;100.00;101350.28;5096108;28;20031;-47
2023/08/15 07:39:43;;;;;;;0.00;0.00;;;;;;;19.80;100.00;101354.66;5096677;28;20468;-47
2023/08/15 07:42:09;;;;;;;0.10;0.10;;;;;;;19.83;100.00;101359.03;5096963;28;20460;-49
2023/08/15 07:44:34;;;;;;;0.10;0.10;;;;;;;19.82;100.00;101346.81;5095393;28;20049;-46
2023/08/15 07:46:59;;;;;;;0.00;0.00;;;;;;;19.86;100.00;101365.16;5096427;28;20031;-44
2023/08/15 07:49:24;;;;;;;0.10;0.10;;;;;;;19.89;100.00;101359.03;5096410;28;20055;-48
2023/08/15 07:51:52;;;;;;;0.00;0.00;;;;;;;19.78;100.00;101358.13;5095844;28;20047;-47
2023/08/15 07:54:17;;;;;;;;;;;;;;;19.87;100.00;101355.53;5097020;28;20070;-45
2023/08/15 07:56:43;;;;;;;0.00;0.00;;;;;;;19.71;100.00;101358.13;5096064;28;20283;-49
2023/08/15 07:59:08;;;;;;;0.10;0.10;;;;;;;19.80;100.00;101365.09;5095562;28;20099;-46
2023/08/15 08:01:33;;;;;;;0.00;0.00;;;;;;;19.85;100.00;101366.00;5095862;28;20020;-50
2023/08/15 08:03:58;;;;;;;0.10;0.10;;;;;;;19.90;100.00;101368.63;5096479;28;20491;-49
2023/08/15 08:06:24;;;;;;;0.00;0.00;;;;;;;20.05;100.00;101368.63;5094912;28;20031;-46
2023/08/15 08:08:49;;;;;;;0.00;0.00;;;;;;;20.23;100.00;101377.28;5096184;28;20105;-45
2023/08/15 08:11:14;;;;;;;0.00;0.00;;;;;;;20.29;100.00;101364.19;5096021;28;20020;-47
2023/08/15 08:13:40;;;;;;;0.00;0.00;;;;;;;20.50;100.00;101371.13;5094939;28;20383;-47
2023/08/15 08:16:05;;;;;;;0.10;0.10;;;;;;;20.61;100.00;101376.31;5095938;28;20055;-47
2023/08/15 08:18:30;;;;;;;0.00;0.00;;;;;;;20.73;100.00;101378.06;5095621;28;20478;-45
2023/08/15 08:20:56;;;;;;;0.00;0.00;;;;;;;20.84;100.00;101371.03;5095183;28;20051;-48
2023/08/15 08:23:23;;;;;;;0.00;0.00;;;;;;;20.82;100.00;101374.53;5096009;28;20099;-50
2023/08/15 08:25:49;;;;;;;0.05;0.05;;;;;;;20.94;100.00;101377.09;5095689;28;20421;-45
2023/08/15 08:28:14;;;;;;;0.00;0.00;;;;;;;21.01;100.00;101377.94;5094989;28;20078;-50
2023/08/15 08:30:42;;;;;;;0.10;0.10;;;;;;;21.04;100.00;101380.53;5095026;28;20122;-48
2023/08/15 08:33:09;;;;;;;;;;;;;;;21.17;100.00;101386.56;5096166;28;20024;-47
2023/08/15 08:35:34;;;;;;;0.00;0.00;;;;;;;20.95;99.86;101383.22;5094850;28;19908;-47
2023/08/15 08:38:00;;;;;;;0.00;0.00;;;;;;;20.94;100.00;101384.97;5095733;28;20032;-50
2023/08/15 08:40:27;;;;;;;0.00;0.00;;;;;;;20.89;100.00;101386.75;5094263;28;20031;-48
2023/08/15 08:42:52;;;;;;;0.00;0.00;;;;;;;20.86;100.00;101381.50;5095494;28;20088;-48
2023/08/15 08:45:18;;;;;;;0.00;0.00;;;;;;;20.82;100.00;101382.38;5094981;28;20044;-45
2023/08/15 08:47:45;;;;;;;0.05;0.05;;;;;;;20.81;100.00;101385.88;5093515;28;20032;-48
2023/08/15 08:50:11;;;;;;;0.00;0.00;;;;;;;20.89;100.00;101386.75;5095346;28;20468;-46
2023/08/15 08:52:52;;;;;;;0.00;0.00;;;;;;;21.00;100.00;101390.16;5095035;28;20154;-50
2023/08/15 08:55:19;;;;;;;0.10;0.10;;;;;;;21.23;100.00;101391.78;5094517;28;20024;-45
2023/08/15 08:57:48;;;;;;;;;;;;;;;21.46;100.00;101377.63;5095267;28;20040;-45
2023/08/15 09:00:14;;;;;;;0.00;0.00;;;;;;;21.67;100.00;101392.41;5095414;28;19912;-45
2023/08/15 09:02:40;;;;;;;0.00;0.00;;;;;;;21.83;96.19;101398.38;5094600;28;20016;-44
2023/08/15 09:05:07;;;;;;;0.00;0.00;;;;;;;21.89;94.57;101403.56;5095197;28;20026;-44
2023/08/15 09:07:34;;;;;;;0.00;0.00;;;;;;;22.13;93.09;101401.59;5094736;28;20103;-44
2023/08/15 09:10:00;;;;;;;0.05;0.05;;;;;;;22.19;91.88;101401.53;5094279;28;20024;-48
2023/08/15 09:12:56;;;;;;;0.00;0.00;;;;;;;22.54;95.11;101400.31;5094504;28;20020;-49
2023/08/15 09:15:23;;;;;;;0.00;0.00;;;;;;;22.34;87.21;101401.38;5093030;28;20475;-51
2023/08/15 09:17:48;;;;;;;;;;;;;;;22.48;90.71;101401.28;5095241;28;20082;-45
2023/08/15 09:20:16;;;;;;;0.00;0.00;;;;;;;22.24;90.24;101404.13;5094927;28;20363;-47
2023/08/15 09:22:45;;;;;;;0.00;0.00;;;;;;;22.38;91.23;101407.50;5093699;28;20278;-44
2023/08/15 09:25:11;;;;;;;0.00;0.00;;;;;;;22.34;88.02;101405.78;5094608;28;20460;-50
2023/08/15 09:27:39;;;;;;;0.00;0.00;;;;;;;22.38;89.75;101417.16;5094390;28;20111;-50
2023/08/15 09:30:13;;;;;;;0.08;0.00;;;;;;;22.29;89.28;101416.31;5093735;28;20502;-47
2023/08/15 09:32:40;;;;;;;0.00;0.00;;;;;;;22.44;89.90;101417.06;5094177;28;20051;-49
2023/08/15 09:35:07;;;;;;;0.00;0.00;;;;;;;22.50;89.21;101424.88;5094418;28;20387;-49
2023/08/15 09:37:32;;;;;;;;;;;;;;;22.86;90.67;101420.09;5093851;28;20031;-49
2023/08/15 09:39:59;;;;;;;0.00;0.00;;;;;;;23.00;85.75;101420.78;5094559;28;20006;-48
2023/08/15 09:42:24;;;;;;;0.00;0.00;;;;;;;23.08;85.26;101419.81;5094223;28;20032;-47
2023/08/15 09:44:50;;;;;;;0.00;0.00;;;;;;;23.18;83.71;101421.47;5093416;28;20044;-45
2023/08/15 09:47:19;;;;;;;0.00;0.00;;;;;;;23.14;83.48;101422.38;5094170;28;20032;-47
2023/08/15 09:49:44;;;;;;;0.00;0.00;;;;;;;22.99;83.77;101429.56;5093827;28;20033;-47
2023/08/15 09:52:10;;;;;;;0.00;0.00;;;;;;;23.18;82.25;101426.72;5093309;28;20024;-43
2023/08/15 09:54:37;;;;;;;0.00;0.00;;;;;;;23.28;82.86;101430.09;5093784;28;20361;-47
2023/08/15 09:57:02;;;;;;;0.00;0.00;;;;;;;23.34;81.69;101427.38;5093889;28;20032;-45
2023/08/15 09:59:28;;;;;;;0.00;0.00;;;;;;;23.25;80.81;101435.41;5092915;28;20032;-45
2023/08/15 10:01:55;;;;;;;0.00;0.00;;;;;;;23.41;80.39;101442.19;5093929;28;20028;-50
2023/08/15 10:04:22;;;;;;;0.00;0.00;;;;;;;23.98;78.32;101441.31;5093988;28;20032;-45
2023/08/15 10:06:51;;;;;;;0.00;0.00;;;;;;;24.21;77.69;101445.31;5093260;28;20051;-46
2023/08/15 10:09:17;;;;;;;0.00;0.00;;;;;;;24.22;79.04;101449.72;5093962;28;20016;-49
2023/08/15 10:11:44;;;;;;;0.00;0.00;;;;;;;24.73;77.37;101455.81;5092966;28;20093;-49
2023/08/15 10:14:14;;;;;;;0.00;0.00;;;;;;;25.56;73.14;101467.22;5093820;28;20044;-47
2023/08/15 10:16:40;;;;;;;0.00;0.00;;;;;;;25.53;70.92;101459.41;5093577;28;20032;-45
2023/08/15 10:19:09;;;;;;;0.00;0.00;;;;;;;25.48;71.26;101471.81;5092892;28;20023;-44
2023/08/15 10:21:51;;;;;;;0.00;0.00;;;;;;;25.58;72.28;101467.22;5093458;28;20026;-49
2023/08/15 10:24:17;;;;;;;0.00;0.00;;;;;;;25.31;71.55;101470.41;5093644;28;20024;-46
2023/08/15 10:26:43;;;;;;;0.00;0.00;;;;;;;25.72;72.65;101465.09;5092584;28;20035;-50
2023/08/15 10:29:09;;;;;;;0.00;0.00;;;;;;;26.76;67.92;101465.97;5093480;28;20032;-45
2023/08/15 10:31:36;;;;;;;0.00;0.00;;;;;;;27.31;63.10;101467.03;5093265;28;20020;-44
2023/08/15 10:34:03;;;;;;;0.00;0.00;;;;;;;27.84;60.64;101475.09;5092694;28;20367;-47
2023/08/15 10:36:28;;;;;;;0.00;0.00;;;;;;;28.14;56.69;101469.69;5093308;28;20031;-46
2023/08/15 10:38:54;;;;;;;0.00;0.00;;;;;;;27.90;56.16;101472.25;5093504;28;20024;-49
2023/08/15 10:41:19;;;;;;;0.00;0.00;;;;;;;28.20;52.50;101474.78;5092550;28;20099;-49
2023/08/15 10:43:53;;;;;;;0.00;0.00;;;;;;;28.27;51.37;101485.19;5092964;28;20052;-45
2023/08/15 10:46:25;;;;;;;0.00;0.00;;;;;;;27.70;54.17;101485.25;5093438;28;20039;-49
2023/08/15 10:48:54;;;;;;;0.00;0.00;;;;;;;26.55;55.50;101479.78;5092619;28;20028;-45
2023/08/15 10:51:28;;;;;;;0.00;0.00;;;;;;;26.04;58.59;101481.06;5093260;28;20020;-48
2023/08/15 10:53:56;;;;;;;0.00;0.00;;;;;;;27.17;56.25;101486.00;5092391;28;20028;-48
2023/08/15 10:56:30;;;;;;;0.00;0.00;;;;;;;27.11;55.17;101469.38;5092979;28;20055;-48
2023/08/15 10:58:57;;;;;;;0.00;0.00;;;;;;;26.71;55.32;101469.63;5093232;28;20055;-45
2023/08/15 11:01:24;;;;;;;0.00;0.00;;;;;;;27.43;55.67;101471.97;5092466;28;20024;-46
2023/08/15 11:03:52;;;;;;;0.00;0.00;;;;;;;27.48;53.03;101464.75;5093219;28;20020;-51
2023/08/15 11:06:18;;;;;;;0.00;0.00;;;;;;;28.73;50.80;101463.22;5092511;28;20024;-50
2023/08/15 11:08:55;;;;;;;0.00;0.00;;;;;;;29.49;49.56;101467.44;5091412;28;20035;-45
2023/08/15 11:11:20;;;;;;;0.00;0.00;;;;;;;29.64;46.48;101471.28;5093329;28;20121;-50
2023/08/15 11:13:48;;;;;;;0.00;0.00;;;;;;;29.86;45.57;101474.78;5092486;28;20035;-50
2023/08/15 11:16:18;;;;;;;0.00;0.00;;;;;;;29.84;46.55;101471.31;5092072;28;20418;-46